Time;durP1;ratioP1;P1;durP2;ratioP2;P2;SDS_P1;SDS_P2;PMS_P1;PMS_P2;Temp;Humidity;BMP_temperature;BMP_pressure;BME280_temperature;BME280_humidity;BME280_pressure;Samples;Min_cycle;Max_cycle;Signal;HPM_P1;HPM_P2
2022/07/31 16:27:12;;;;;;;3.45;3.25;;;;;;;26.68;42.54;94240.53;2471702;54;52152;-77
2022/07/31 16:29:40;;;;;;;3.13;2.95;;;;;;;26.31;42.88;94214.31;2617182;54;20183;-77
2022/07/31 16:32:10;;;;;;;3.47;3.28;;;;;;;26.08;43.32;94200.56;2616701;47;20148;-78
2022/07/31 16:34:38;;;;;;;4.07;3.88;;;;;;;26.05;43.39;94201.41;2617194;47;20134;-78
2022/07/31 16:37:07;;;;;;;3.17;3.08;;;;;;;25.78;44.04;94239.28;2617104;54;20225;-78
2022/07/31 16:39:36;;;;;;;3.40;3.15;;;;;;;25.42;44.34;94215.72;2616845;54;20157;-78
2022/07/31 16:42:05;;;;;;;2.70;2.50;;;;;;;25.47;44.91;94225.72;2617407;54;20183;-76
2022/07/31 16:44:38;;;;;;;3.40;3.20;;;;;;;25.45;45.04;94207.69;2617212;54;20706;-77
2022/07/31 16:47:09;;;;;;;3.70;3.33;;;;;;;25.68;44.84;94242.53;2617361;54;20149;-77
2022/07/31 16:49:38;;;;;;;3.33;3.13;;;;;;;25.75;45.65;94243.72;2617225;54;20134;-77
2022/07/31 16:52:07;;;;;;;4.03;3.70;;;;;;;24.77;44.57;94098.94;2617409;46;20188;-77
2022/07/31 16:54:36;;;;;;;3.78;3.58;;;;;;;25.67;45.26;94250.50;2617278;54;20530;-78
2022/07/31 16:57:04;;;;;;;3.30;3.10;;;;;;;25.48;44.73;94247.44;2617443;54;20149;-77
2022/07/31 16:59:37;;;;;;;2.85;2.70;;;;;;;25.52;45.11;94251.69;2617417;47;20153;-76
2022/07/31 17:02:06;;;;;;;4.03;3.70;;;;;;;25.53;45.31;94258.94;2616606;47;20208;-77
2022/07/31 17:04:34;;;;;;;2.97;2.85;;;;;;;25.40;45.99;94253.50;2617258;54;20164;-76
2022/07/31 17:07:03;;;;;;;3.72;3.53;;;;;;;25.08;45.81;94203.03;2616992;54;20236;-76
2022/07/31 17:09:32;;;;;;;3.17;3.00;;;;;;;25.15;45.68;94241.94;2617478;54;20235;-77
2022/07/31 17:12:01;;;;;;;3.40;3.20;;;;;;;24.92;46.48;94223.06;2617234;47;20168;-77
2022/07/31 17:14:30;;;;;;;2.72;2.63;;;;;;;24.88;46.75;94255.75;2616895;54;20160;-77
2022/07/31 17:17:01;;;;;;;3.17;2.97;;;;;;;24.74;47.16;94233.69;2617046;47;20247;-77
2022/07/31 17:19:30;;;;;;;3.63;3.42;;;;;;;24.72;47.22;94245.34;2617208;47;20248;-78
2022/07/31 17:21:58;;;;;;;3.55;3.35;;;;;;;24.85;47.53;94260.19;2617217;54;20141;-75
2022/07/31 17:24:27;;;;;;;3.45;3.25;;;;;;;24.74;47.44;94256.84;2617056;54;20191;-75
2022/07/31 17:26:56;;;;;;;3.60;3.40;;;;;;;24.54;48.47;94253.84;2617237;47;20191;-80
2022/07/31 17:29:25;;;;;;;3.50;3.30;;;;;;;24.77;47.98;94274.91;2616995;47;20172;-79
2022/07/31 17:31:53;;;;;;;3.25;3.05;;;;;;;24.74;47.72;94285.09;2617244;54;20187;-79
2022/07/31 17:34:25;;;;;;;3.80;3.60;;;;;;;24.58;47.83;94280.50;2617154;54;20315;-79
2022/07/31 17:36:53;;;;;;;3.70;3.45;;;;;;;24.76;49.26;94282.88;2617485;54;20144;-80
2022/07/31 17:39:22;;;;;;;3.55;3.35;;;;;;;24.75;49.56;94292.31;2617219;47;20145;-79
2022/07/31 17:41:51;;;;;;;3.65;3.45;;;;;;;24.54;49.94;94259.63;2617762;39;20638;-79
2022/07/31 17:44:19;;;;;;;4.63;4.32;;;;;;;24.76;49.42;94276.38;2616892;54;20156;-80
2022/07/31 17:46:48;;;;;;;7.22;3.58;;;;;;;24.94;48.43;94293.25;2617017;47;20795;-82
2022/07/31 17:49:17;;;;;;;3.67;3.47;;;;;;;24.46;48.04;94259.84;2617337;47;20164;-82
2022/07/31 17:51:49;;;;;;;4.07;3.67;;;;;;;24.42;48.87;94290.31;2616773;39;20594;-80
2022/07/31 17:54:17;;;;;;;4.45;4.15;;;;;;;24.51;49.58;94308.19;2617650;39;20542;-80
2022/07/31 17:56:46;;;;;;;3.85;3.65;;;;;;;23.77;49.56;94238.47;2617324;54;20160;-80
2022/07/31 17:59:15;;;;;;;3.47;3.28;;;;;;;24.21;49.75;94297.38;2617283;54;20149;-80
2022/07/31 18:01:43;;;;;;;4.03;3.72;;;;;;;23.66;50.50;94241.59;2616626;39;20852;-81
2022/07/31 18:04:12;;;;;;;2.97;2.78;;;;;;;23.93;49.51;94287.94;2617037;54;20187;-79
2022/07/31 18:06:41;;;;;;;3.08;2.97;;;;;;;23.75;50.23;94276.81;2617258;47;20153;-79
2022/07/31 18:09:13;;;;;;;3.15;2.88;;;;;;;23.92;49.65;94295.19;2617489;47;20156;-79
2022/07/31 18:11:42;;;;;;;2.92;2.72;;;;;;;23.88;49.28;94312.66;2617676;39;20528;-79
2022/07/31 18:14:10;;;;;;;3.40;3.20;;;;;;;23.87;50.11;94305.44;2617783;39;20646;-79
2022/07/31 18:16:39;;;;;;;3.03;2.88;;;;;;;23.96;50.68;94318.22;2617314;47;20283;-79
2022/07/31 18:19:08;;;;;;;2.83;2.72;;;;;;;23.74;49.69;94331.06;2617024;54;20152;-79
2022/07/31 18:21:36;;;;;;;3.05;2.95;;;;;;;23.53;52.32;94268.66;2616810;39;20544;-78
2022/07/31 18:24:06;;;;;;;3.28;3.08;;;;;;;23.79;51.52;94316.47;2617459;39;20655;-78
2022/07/31 18:26:38;;;;;;;3.38;3.08;;;;;;;23.88;50.29;94318.44;2617545;54;20223;-78
2022/07/31 18:29:08;;;;;;;3.90;3.55;;;;;;;23.85;50.77;94314.16;2617902;54;20140;-78
2022/07/31 18:31:36;;;;;;;2.63;2.53;;;;;;;23.68;50.74;94304.44;2617729;47;20153;-79
2022/07/31 18:34:06;;;;;;;3.17;2.97;;;;;;;23.85;52.08;94328.63;2617595;54;20705;-79
2022/07/31 18:36:34;;;;;;;3.00;2.80;;;;;;;23.64;50.19;94319.00;2617569;47;20176;-79
2022/07/31 18:39:05;;;;;;;3.13;2.92;;;;;;;23.68;52.14;94336.97;2617585;46;20168;-79
2022/07/31 18:41:36;;;;;;;3.20;3.00;;;;;;;23.66;52.14;94344.97;2617824;47;20153;-79
2022/07/31 18:44:07;;;;;;;3.28;3.08;;;;;;;23.61;52.41;94327.03;2617629;54;20241;-79
2022/07/31 18:46:36;;;;;;;3.53;3.33;;;;;;;23.83;53.62;94346.03;2617799;54;20164;-79
2022/07/31 18:49:06;;;;;;;2.42;2.33;;;;;;;23.45;51.44;94297.75;2618006;39;20539;-79
2022/07/31 18:51:35;;;;;;;3.13;3.03;;;;;;;23.83;50.46;94359.78;2617855;54;20264;-79
2022/07/31 18:54:04;;;;;;;3.17;2.97;;;;;;;23.77;52.04;94354.84;2617650;47;20153;-79
2022/07/31 18:56:34;;;;;;;2.97;2.88;;;;;;;23.28;52.44;94303.88;2616064;54;20152;-81
2022/07/31 18:59:03;;;;;;;3.10;2.90;;;;;;;23.81;52.00;94368.47;2616839;54;20194;-81
2022/07/31 19:01:34;;;;;;;3.10;2.95;;;;;;;22.32;52.88;94160.78;2617234;54;20163;-79
2022/07/31 19:04:03;;;;;;;2.95;2.83;;;;;;;23.59;51.82;94369.72;2617049;47;20183;-79
2022/07/31 19:06:32;;;;;;;3.30;3.10;;;;;;;23.20;52.72;94355.34;2616664;47;20160;-79
2022/07/31 19:09:01;;;;;;;3.53;3.33;;;;;;;22.92;51.93;94348.69;2617050;54;20141;-79
2022/07/31 19:11:30;;;;;;;2.67;2.47;;;;;;;22.84;52.52;94374.09;2616903;47;20145;-79
2022/07/31 19:13:58;;;;;;;2.30;2.20;;;;;;;22.68;52.56;94390.25;2616889;54;20260;-79
2022/07/31 19:16:28;;;;;;;2.83;2.58;;;;;;;22.36;53.93;94329.53;2616788;47;20671;-80
2022/07/31 19:18:59;;;;;;;1.83;1.73;;;;;;;22.10;51.74;94310.50;2616959;47;20153;-80
2022/07/31 19:21:28;;;;;;;1.90;1.80;;;;;;;22.34;51.30;94341.81;2616875;46;20679;-80
2022/07/31 19:23:57;;;;;;;2.28;2.17;;;;;;;22.31;51.46;94360.59;2617034;47;20156;-80
2022/07/31 19:26:26;;;;;;;2.80;2.60;;;;;;;22.71;51.94;94382.25;2616646;39;20663;-80
2022/07/31 19:28:55;;;;;;;2.65;2.55;;;;;;;22.71;52.11;94393.81;2616789;39;20642;-80
2022/07/31 19:31:24;;;;;;;1.92;1.83;;;;;;;22.34;51.67;94336.03;2617125;47;20164;-79
2022/07/31 19:33:52;;;;;;;1.92;1.83;;;;;;;22.27;51.12;94358.53;2617023;47;20152;-80
2022/07/31 19:36:24;;;;;;;2.30;2.20;;;;;;;22.51;50.80;94397.78;2617203;39;20298;-80
2022/07/31 19:38:52;;;;;;;2.55;2.40;;;;;;;22.36;51.33;94379.28;2616611;54;20160;-80
2022/07/31 19:41:22;;;;;;;2.63;2.53;;;;;;;22.33;52.24;94406.72;2616929;54;20263;-80
2022/07/31 19:43:51;;;;;;;3.00;2.80;;;;;;;22.24;52.49;94405.44;2616742;54;20164;-80
2022/07/31 19:46:20;;;;;;;2.50;2.30;;;;;;;21.58;52.50;94332.94;2616852;47;20248;-80
2022/07/31 19:48:48;;;;;;;2.92;2.72;;;;;;;21.87;52.28;94365.59;2617129;54;20149;-81
2022/07/31 19:51:18;;;;;;;2.50;2.40;;;;;;;22.05;52.38;94404.31;2616146;54;20162;-80
2022/07/31 19:57:09;;;;;;;1.42;1.42;;;;;;;21.62;52.97;94381.84;2616130;46;20156;-80
2022/07/31 19:59:38;;;;;;;3.00;2.42;;;;;;;21.57;53.47;94369.69;2617037;47;20157;-80
2022/07/31 20:02:07;;;;;;;2.25;2.03;;;;;;;21.68;52.70;94392.59;2616675;54;20287;-80
2022/07/31 20:04:36;;;;;;;2.85;2.75;;;;;;;21.77;53.47;94419.81;2616929;54;20165;-81
2022/07/31 20:07:05;;;;;;;2.80;2.67;;;;;;;21.49;53.57;94384.19;2617170;39;20567;-81
2022/07/31 20:09:34;;;;;;;2.22;2.13;;;;;;;21.73;53.29;94419.91;2617075;54;20300;-79
2022/07/31 20:12:02;;;;;;;3.03;2.83;;;;;;;21.72;54.47;94416.31;2616606;47;20670;-80
2022/07/31 20:14:35;;;;;;;2.58;2.47;;;;;;;21.25;53.37;94364.34;2617293;39;20559;-83
2022/07/31 20:17:04;;;;;;;2.95;2.75;;;;;;;21.71;54.11;94400.47;2616546;54;20153;-80
2022/07/31 20:19:32;;;;;;;2.90;2.80;;;;;;;21.88;54.49;94418.22;2616703;54;20658;-80
2022/07/31 20:22:01;;;;;;;3.13;2.88;;;;;;;21.79;52.68;94417.63;2616668;54;20165;-81
2022/07/31 20:24:30;;;;;;;2.67;2.53;;;;;;;21.88;52.42;94412.44;2616599;47;20164;-79
2022/07/31 20:26:59;;;;;;;1.65;1.63;;;;;;;21.40;52.13;94388.63;2616631;47;20195;-80
2022/07/31 20:29:28;;;;;;;3.55;3.25;;;;;;;21.59;52.76;94409.97;2616939;54;20190;-80
2022/07/31 20:31:59;;;;;;;1.58;1.48;;;;;;;21.32;52.72;94397.38;2616886;47;20157;-80
2022/07/31 20:34:28;;;;;;;2.25;2.15;;;;;;;21.37;52.82;94401.63;2616548;47;20171;-80
2022/07/31 20:36:57;;;;;;;2.72;2.60;;;;;;;21.43;52.24;94418.13;2616672;54;20144;-80
2022/07/31 20:39:26;;;;;;;2.80;2.55;;;;;;;21.17;52.18;94370.91;2616792;54;20163;-80
2022/07/31 20:41:55;;;;;;;4.22;1.88;;;;;;;21.32;52.86;94419.72;2617119;54;20168;-80
2022/07/31 20:44:24;;;;;;;2.28;2.17;;;;;;;20.75;52.57;94340.47;2616658;54;20164;-80
2022/07/31 20:46:52;;;;;;;2.38;2.28;;;;;;;21.33;52.07;94412.50;2615179;54;20161;-80
2022/07/31 20:49:24;;;;;;;2.92;2.83;;;;;;;21.16;52.57;94371.66;2616229;54;20149;-81
2022/07/31 20:51:52;;;;;;;2.53;2.42;;;;;;;21.28;52.67;94415.44;2617165;47;20149;-80
2022/07/31 20:54:22;;;;;;;2.00;1.90;;;;;;;21.28;52.60;94415.44;2617417;39;20528;-82
2022/07/31 20:56:51;;;;;;;2.88;2.67;;;;;;;21.25;52.69;94404.66;2616790;47;20146;-78
2022/07/31 20:59:19;;;;;;;2.28;2.17;;;;;;;21.18;52.29;94406.88;2616717;47;20180;-78
2022/07/31 21:01:48;;;;;;;2.33;2.22;;;;;;;20.73;52.64;94352.00;2616956;54;20183;-82
2022/07/31 21:04:17;;;;;;;2.15;2.05;;;;;;;21.31;53.56;94421.19;2617061;47;20152;-79
2022/07/31 21:06:49;;;;;;;2.85;2.58;;;;;;;21.25;52.43;94422.66;2616970;54;20161;-79
2022/07/31 21:09:18;;;;;;;3.08;2.88;;;;;;;21.39;52.97;94421.06;2616955;54;20161;-79
2022/07/31 21:11:47;;;;;;;2.78;2.65;;;;;;;21.43;52.23;94424.63;2616728;47;20141;-76
2022/07/31 21:14:16;;;;;;;1.88;1.77;;;;;;;21.21;51.79;94428.47;2616911;54;20137;-79
2022/07/31 21:16:45;;;;;;;2.92;2.72;;;;;;;21.19;51.16;94399.69;2616757;54;20165;-78
2022/07/31 21:19:13;;;;;;;3.95;2.22;;;;;;;21.49;52.87;94421.63;2617180;46;20599;-80
2022/07/31 21:21:42;;;;;;;2.50;2.40;;;;;;;21.61;52.29;94406.34;2616989;47;20196;-82
2022/07/31 21:24:14;;;;;;;2.30;2.20;;;;;;;21.51;51.29;94418.72;2617301;39;20600;-82
2022/07/31 21:26:44;;;;;;;2.40;2.30;;;;;;;21.46;51.72;94399.34;2616987;47;20199;-78
2022/07/31 21:29:14;;;;;;;2.03;1.92;;;;;;;21.61;51.51;94400.59;2617021;54;20148;-78
2022/07/31 21:31:43;;;;;;;2.83;2.58;;;;;;;21.75;54.61;94377.31;2616849;54;20145;-79
2022/07/31 21:34:12;;;;;;;2.17;2.08;;;;;;;22.22;51.94;94429.28;2616717;47;20165;-78
2022/07/31 21:36:42;;;;;;;2.88;2.67;;;;;;;21.99;50.18;94396.47;2617011;46;20203;-75
2022/07/31 21:39:13;;;;;;;2.45;2.30;;;;;;;22.05;51.62;94401.41;2616812;54;20236;-74
2022/07/31 21:41:43;;;;;;;2.70;2.50;;;;;;;22.23;50.52;94409.78;2616344;54;20668;-78
2022/07/31 21:44:12;;;;;;;2.28;2.17;;;;;;;21.87;48.95;94420.38;2616899;47;20171;-77
2022/07/31 21:46:42;;;;;;;2.08;1.98;;;;;;;21.55;50.32;94383.41;2616833;31;20587;-78
2022/07/31 21:49:11;;;;;;;1.80;1.70;;;;;;;21.50;49.90;94425.94;2616702;54;20156;-79
2022/07/31 21:51:40;;;;;;;3.92;2.15;;;;;;;21.03;51.08;94359.56;2616758;54;20141;-82
2022/07/31 21:54:12;;;;;;;1.60;1.55;;;;;;;21.40;51.53;94425.38;2616696;47;20175;-78
2022/07/31 21:56:44;;;;;;;2.00;1.90;;;;;;;21.50;51.80;94414.44;2616450;47;20133;-80
2022/07/31 21:59:14;;;;;;;2.15;1.92;;;;;;;21.33;51.55;94403.84;2616886;54;20200;-80
2022/07/31 22:01:42;;;;;;;1.42;1.40;;;;;;;21.46;50.50;94419.53;2616426;54;20417;-81
2022/07/31 22:04:11;;;;;;;2.15;2.05;;;;;;;21.47;51.07;94418.78;2616821;54;20160;-80
2022/07/31 22:09:23;;;;;;;2.25;2.05;;;;;;;21.32;50.98;94399.56;2617035;54;20228;-82
2022/07/31 22:11:55;;;;;;;2.67;2.25;;;;;;;21.41;51.62;94401.59;2616628;54;20676;-80
2022/07/31 22:14:24;;;;;;;2.10;2.00;;;;;;;21.58;52.36;94420.09;2617070;39;20702;-82
2022/07/31 22:16:53;;;;;;;1.67;1.58;;;;;;;21.27;52.51;94385.19;2616589;47;20306;-83
2022/07/31 22:19:22;;;;;;;1.60;1.50;;;;;;;21.48;51.63;94422.38;2616889;47;20168;-82
2022/07/31 22:21:52;;;;;;;2.67;2.47;;;;;;;21.55;50.56;94406.44;2616558;54;20178;-81
2022/07/31 22:24:21;;;;;;;2.63;1.83;;;;;;;21.24;51.09;94377.31;2616983;47;20137;-82
2022/07/31 22:29:38;;;;;;;1.85;1.75;;;;;;;21.54;52.40;94391.31;2616647;54;20179;-80
2022/07/31 22:32:07;;;;;;;1.17;1.15;;;;;;;21.37;50.82;94415.31;2616622;47;20171;-78
2022/07/31 22:34:36;;;;;;;2.10;1.98;;;;;;;21.21;51.10;94388.16;2614686;47;20168;-79
2022/07/31 22:37:05;;;;;;;1.67;1.67;;;;;;;21.11;50.53;94370.97;2615156;47;20175;-79
2022/07/31 22:39:34;;;;;;;1.30;1.30;;;;;;;21.38;51.91;94416.75;2616634;47;20192;-78
2022/07/31 22:42:03;;;;;;;0.98;0.98;;;;;;;21.25;50.44;94414.03;2617073;54;20213;-79
2022/07/31 22:44:36;;;;;;;1.63;1.52;;;;;;;20.76;50.56;94370.69;2616723;54;20152;-79
2022/07/31 22:47:05;;;;;;;1.60;1.50;;;;;;;21.04;52.01;94397.72;2616921;47;20149;-80
2022/07/31 22:49:36;;;;;;;1.10;1.10;;;;;;;20.79;50.89;94345.44;2616708;47;20762;-79
2022/07/31 22:52:05;;;;;;;1.40;1.38;;;;;;;21.05;50.91;94396.25;2616761;54;20189;-79
2022/07/31 22:54:34;;;;;;;1.73;1.63;;;;;;;20.83;51.79;94360.50;2616683;47;20144;-79
2022/07/31 22:57:03;;;;;;;1.30;1.20;;;;;;;21.11;50.95;94422.81;2616538;47;20260;-79
2022/07/31 22:59:34;;;;;;;1.50;1.40;;;;;;;21.07;51.24;94417.09;2616925;54;20149;-80
2022/07/31 23:02:03;;;;;;;1.15;1.13;;;;;;;21.20;52.65;94415.53;2616728;47;20183;-79
2022/07/31 23:04:32;;;;;;;1.73;1.65;;;;;;;20.70;51.64;94361.38;2617025;54;20149;-79
2022/07/31 23:07:00;;;;;;;1.13;1.13;;;;;;;21.12;51.52;94409.84;2616107;47;20157;-79
2022/07/31 23:09:30;;;;;;;1.70;1.60;;;;;;;20.52;52.93;94324.88;2617249;54;20184;-79
2022/07/31 23:11:59;;;;;;;1.55;1.50;;;;;;;20.86;51.14;94372.72;2617364;47;20153;-79
2022/07/31 23:14:28;;;;;;;7.05;1.40;;;;;;;21.04;52.01;94392.66;2618308;54;20169;-79
2022/07/31 23:17:01;;;;;;;2.30;1.50;;;;;;;21.24;51.46;94423.41;2618173;47;20161;-79
2022/07/31 23:19:30;;;;;;;1.38;1.38;;;;;;;20.99;52.81;94396.31;2617567;54;20232;-79
2022/07/31 23:21:59;;;;;;;1.58;1.58;;;;;;;20.71;52.94;94365.69;2618130;54;20145;-79
2022/07/31 23:24:28;;;;;;;1.13;1.13;;;;;;;20.98;50.92;94407.13;2618133;54;20164;-79
2022/07/31 23:26:56;;;;;;;1.85;1.75;;;;;;;20.88;52.28;94392.84;2617859;47;20192;-79
2022/07/31 23:29:25;;;;;;;0.93;0.93;;;;;;;20.54;51.48;94388.16;2618120;54;20152;-78
2022/07/31 23:31:54;;;;;;;1.08;1.08;;;;;;;20.57;51.44;94413.31;2618018;47;20259;-78
2022/07/31 23:34:26;;;;;;;1.25;1.15;;;;;;;20.44;51.96;94391.16;2618543;39;20572;-78
2022/07/31 23:36:55;;;;;;;1.90;1.80;;;;;;;20.69;52.41;94423.25;2618210;46;20145;-78
2022/07/31 23:39:23;;;;;;;1.45;1.42;;;;;;;20.27;51.84;94364.66;2618005;47;20713;-79
2022/07/31 23:44:33;;;;;;;0.90;0.90;;;;;;;20.78;51.34;94424.59;2618054;47;20145;-78
2022/07/31 23:47:01;;;;;;;1.15;1.13;;;;;;;20.43;52.85;94389.72;2617501;46;20618;-78
2022/07/31 23:49:33;;;;;;;0.95;0.95;;;;;;;20.67;50.50;94417.53;2617949;39;20681;-78
2022/07/31 23:52:01;;;;;;;1.10;1.10;;;;;;;20.41;53.12;94378.22;2617731;54;20145;-79
2022/07/31 23:54:30;;;;;;;0.70;0.70;;;;;;;20.17;50.83;94379.13;2618466;46;20202;-79
2022/07/31 23:56:59;;;;;;;1.40;1.30;;;;;;;20.50;51.10;94414.13;2618169;54;20156;-79
2022/07/31 23:59:27;;;;;;;1.85;0.80;;;;;;;20.12;51.62;94372.69;2618431;54;20156;-79
